NKS614 KMSP-KORD
Flight info
| Callsign | NKS614 |
|---|---|
| Flight time | 0h 52m |
| Altitude | 31000 |
| Route | RST1 RST ZZIPR FYTTE7 |
| Aircraft | A320/M-SDE3FGHIRWY/LB1 |
Departure
| Time | 2026-05-05 01:01 |
|---|---|
| Airport | Minneapolis–Saint Paul International Airport / Wold–Chamberlain Field (KMSP) |
Arrival
| Time | 2026-05-05 01:53 |
|---|---|
| Airport | Chicago O'Hare International Airport (KORD) |
| Time | Latitude | Longitude | Altitude | Speed | Heading |
|---|---|---|---|---|---|
| 2026-05-05 00:37 | 44.88512 | -93.21196 | 825 ft | 0 kts | 234° |
| 2026-05-05 00:40 | 44.88516 | -93.21190 | 825 ft | 4 kts | 234° |
| 2026-05-05 00:40 | 44.88529 | -93.21164 | 825 ft | 3 kts | 233° |
| 2026-05-05 00:40 | 44.88545 | -93.21151 | 822 ft | 4 kts | 167° |
| 2026-05-05 00:40 | 44.88569 | -93.21158 | 823 ft | 4 kts | 171° |
| 2026-05-05 00:41 | 44.88595 | -93.21166 | 823 ft | 4 kts | 160° |
| 2026-05-05 00:41 | 44.88620 | -93.21180 | 822 ft | 4 kts | 159° |
| 2026-05-05 00:41 | 44.88628 | -93.21185 | 825 ft | 0 kts | 161° |
| 2026-05-05 00:46 | 44.88625 | -93.21183 | 825 ft | 2 kts | 156° |
| 2026-05-05 00:46 | 44.88619 | -93.21160 | 825 ft | 3 kts | 83° |
| 2026-05-05 00:46 | 44.88640 | -93.21150 | 825 ft | 4 kts | 359° |
| 2026-05-05 00:47 | 44.88675 | -93.21166 | 825 ft | 6 kts | 331° |
| 2026-05-05 00:47 | 44.88710 | -93.21214 | 825 ft | 8 kts | 299° |
| 2026-05-05 00:47 | 44.88738 | -93.21286 | 825 ft | 8 kts | 298° |
| 2026-05-05 00:47 | 44.88762 | -93.21371 | 825 ft | 10 kts | 285° |
| 2026-05-05 00:48 | 44.88750 | -93.21469 | 824 ft | 12 kts | 233° |
| 2026-05-05 00:48 | 44.88693 | -93.21551 | 823 ft | 14 kts | 225° |
| 2026-05-05 00:48 | 44.88626 | -93.21647 | 826 ft | 11 kts | 225° |
| 2026-05-05 00:48 | 44.88566 | -93.21731 | 826 ft | 13 kts | 225° |
| 2026-05-05 00:49 | 44.88496 | -93.21829 | 826 ft | 16 kts | 225° |
| 2026-05-05 00:49 | 44.88432 | -93.21920 | 823 ft | 10 kts | 225° |
| 2026-05-05 00:49 | 44.88379 | -93.21994 | 826 ft | 12 kts | 224° |
| 2026-05-05 00:49 | 44.88328 | -93.22044 | 825 ft | 9 kts | 178° |
| 2026-05-05 00:50 | 44.88284 | -93.21978 | 822 ft | 10 kts | 120° |
| 2026-05-05 00:50 | 44.88243 | -93.21882 | 823 ft | 13 kts | 122° |
| 2026-05-05 00:50 | 44.88192 | -93.21766 | 823 ft | 15 kts | 121° |
| 2026-05-05 00:50 | 44.88136 | -93.21633 | 825 ft | 17 kts | 121° |
| 2026-05-05 00:51 | 44.88072 | -93.21488 | 822 ft | 16 kts | 122° |
| 2026-05-05 00:51 | 44.88024 | -93.21374 | 825 ft | 13 kts | 121° |
| 2026-05-05 00:51 | 44.87975 | -93.21261 | 825 ft | 15 kts | 121° |
| 2026-05-05 00:51 | 44.87919 | -93.21131 | 824 ft | 16 kts | 121° |
| 2026-05-05 00:52 | 44.87857 | -93.20989 | 826 ft | 18 kts | 121° |
| 2026-05-05 00:52 | 44.87792 | -93.20837 | 826 ft | 17 kts | 123° |
| 2026-05-05 00:52 | 44.87730 | -93.20696 | 826 ft | 16 kts | 121° |
| 2026-05-05 00:52 | 44.87673 | -93.20563 | 826 ft | 16 kts | 121° |
| 2026-05-05 00:53 | 44.87617 | -93.20436 | 825 ft | 12 kts | 122° |
| 2026-05-05 00:53 | 44.87593 | -93.20381 | 824 ft | 7 kts | 122° |
| 2026-05-05 00:53 | 44.87565 | -93.20316 | 824 ft | 9 kts | 121° |
| 2026-05-05 00:53 | 44.87536 | -93.20249 | 826 ft | 0 kts | 121° |
| 2026-05-05 00:58 | 44.87532 | -93.20240 | 826 ft | 4 kts | 121° |
| 2026-05-05 00:58 | 44.87512 | -93.20194 | 823 ft | 7 kts | 121° |
| 2026-05-05 00:58 | 44.87482 | -93.20124 | 826 ft | 9 kts | 121° |
| 2026-05-05 00:59 | 44.87450 | -93.20071 | 827 ft | 6 kts | 163° |
| 2026-05-05 00:59 | 44.87407 | -93.20089 | 828 ft | 7 kts | 215° |
| 2026-05-05 00:59 | 44.87370 | -93.20125 | 824 ft | 5 kts | 215° |
| 2026-05-05 00:59 | 44.87373 | -93.20172 | 824 ft | 7 kts | 300° |
| 2026-05-05 01:00 | 44.87376 | -93.20179 | 827 ft | 0 kts | 302° |
| 2026-05-05 01:00 | 44.87381 | -93.20191 | 827 ft | 5 kts | 302° |
| 2026-05-05 01:00 | 44.87498 | -93.20456 | 824 ft | 73 kts | 302° |
| 2026-05-05 01:01 | 44.87896 | -93.21369 | 828 ft | 142 kts | 302° |
| 2026-05-05 01:01 | 44.88469 | -93.22603 | 1455 ft | 152 kts | 307° |
| 2026-05-05 01:01 | 44.89040 | -93.23873 | 2387 ft | 158 kts | 295° |
| 2026-05-05 01:01 | 44.89088 | -93.25507 | 2875 ft | 185 kts | 259° |
| 2026-05-05 01:02 | 44.88302 | -93.27121 | 3198 ft | 222 kts | 225° |
| 2026-05-05 01:02 | 44.86788 | -93.28067 | 3605 ft | 257 kts | 195° |
| 2026-05-05 01:02 | 44.84951 | -93.27939 | 4169 ft | 282 kts | 168° |
| 2026-05-05 01:02 | 44.83047 | -93.27145 | 5046 ft | 287 kts | 166° |
| 2026-05-05 01:03 | 44.81141 | -93.26253 | 5967 ft | 290 kts | 163° |
| 2026-05-05 01:03 | 44.79217 | -93.25336 | 6831 ft | 294 kts | 166° |
| 2026-05-05 01:03 | 44.77258 | -93.24440 | 7692 ft | 299 kts | 167° |
| 2026-05-05 01:03 | 44.75267 | -93.23539 | 8576 ft | 303 kts | 168° |
| 2026-05-05 01:04 | 44.73250 | -93.22634 | 9433 ft | 306 kts | 169° |
| 2026-05-05 01:04 | 44.69076 | -93.20838 | 10563 ft | 330 kts | 170° |
| 2026-05-05 01:04 | 44.66798 | -93.19882 | 10751 ft | 353 kts | 170° |
| 2026-05-05 01:05 | 44.64408 | -93.18858 | 10983 ft | 372 kts | 169° |
| 2026-05-05 01:05 | 44.61962 | -93.17490 | 11527 ft | 386 kts | 159° |
| 2026-05-05 01:05 | 44.59557 | -93.15754 | 12183 ft | 390 kts | 159° |
| 2026-05-05 01:05 | 44.57122 | -93.14020 | 12806 ft | 394 kts | 160° |
| 2026-05-05 01:06 | 44.54650 | -93.12285 | 13410 ft | 400 kts | 160° |
| 2026-05-05 01:06 | 44.52145 | -93.10540 | 14013 ft | 404 kts | 161° |
| 2026-05-05 01:06 | 44.49617 | -93.08781 | 14600 ft | 408 kts | 161° |
| 2026-05-05 01:06 | 44.47098 | -93.07029 | 15183 ft | 411 kts | 162° |
| 2026-05-05 01:07 | 44.44525 | -93.05244 | 15750 ft | 414 kts | 162° |
| 2026-05-05 01:07 | 44.41939 | -93.03449 | 16362 ft | 416 kts | 162° |
| 2026-05-05 01:07 | 44.39335 | -93.01644 | 16943 ft | 420 kts | 163° |
| 2026-05-05 01:07 | 44.36707 | -92.99828 | 17496 ft | 423 kts | 163° |
| 2026-05-05 01:08 | 44.34063 | -92.97998 | 18080 ft | 426 kts | 163° |
| 2026-05-05 01:08 | 44.32303 | -92.96775 | 18420 ft | 428 kts | 163° |
| 2026-05-05 01:08 | 44.29633 | -92.94914 | 18964 ft | 431 kts | 163° |
| 2026-05-05 01:08 | 44.26945 | -92.93042 | 19504 ft | 433 kts | 163° |
| 2026-05-05 01:09 | 44.23356 | -92.90554 | 20193 ft | 437 kts | 163° |
| 2026-05-05 01:09 | 44.20626 | -92.88670 | 20700 ft | 439 kts | 163° |
| 2026-05-05 01:09 | 44.17884 | -92.86779 | 21138 ft | 441 kts | 163° |
| 2026-05-05 01:09 | 44.15123 | -92.84875 | 21620 ft | 444 kts | 163° |
| 2026-05-05 01:10 | 44.13286 | -92.83610 | 21929 ft | 445 kts | 163° |
| 2026-05-05 01:10 | 44.10498 | -92.81705 | 22359 ft | 447 kts | 163° |
| 2026-05-05 01:10 | 44.07690 | -92.79790 | 22841 ft | 451 kts | 163° |
| 2026-05-05 01:10 | 44.04870 | -92.77862 | 23270 ft | 454 kts | 163° |
| 2026-05-05 01:11 | 44.02032 | -92.75914 | 23643 ft | 456 kts | 163° |
| 2026-05-05 01:11 | 43.98248 | -92.73310 | 24056 ft | 460 kts | 163° |
| 2026-05-05 01:11 | 43.96308 | -92.71977 | 24268 ft | 462 kts | 163° |
| 2026-05-05 01:11 | 43.93416 | -92.69994 | 24599 ft | 465 kts | 163° |
| 2026-05-05 01:12 | 43.90551 | -92.68034 | 24932 ft | 467 kts | 163° |
| 2026-05-05 01:12 | 43.87628 | -92.66041 | 25297 ft | 469 kts | 163° |
| 2026-05-05 01:12 | 43.84692 | -92.64049 | 25666 ft | 471 kts | 163° |
| 2026-05-05 01:12 | 43.81741 | -92.62023 | 26022 ft | 476 kts | 161° |
| 2026-05-05 01:13 | 43.78903 | -92.59541 | 26336 ft | 490 kts | 151° |
| 2026-05-05 01:13 | 43.76286 | -92.56427 | 26687 ft | 503 kts | 142° |
| 2026-05-05 01:13 | 43.73939 | -92.52785 | 27019 ft | 509 kts | 137° |
| 2026-05-05 01:13 | 43.71624 | -92.49066 | 27360 ft | 512 kts | 137° |
| 2026-05-05 01:14 | 43.69318 | -92.45386 | 27680 ft | 514 kts | 137° |
| 2026-05-05 01:14 | 43.66972 | -92.41660 | 28114 ft | 514 kts | 138° |
| 2026-05-05 01:14 | 43.64626 | -92.37941 | 28597 ft | 513 kts | 138° |
| 2026-05-05 01:14 | 43.62289 | -92.34240 | 29090 ft | 512 kts | 138° |
| 2026-05-05 01:15 | 43.59947 | -92.30539 | 29536 ft | 511 kts | 137° |
| 2026-05-05 01:15 | 43.57615 | -92.26861 | 30102 ft | 508 kts | 137° |
| 2026-05-05 01:15 | 43.55292 | -92.23202 | 30562 ft | 507 kts | 137° |
| 2026-05-05 01:15 | 43.52966 | -92.19542 | 30739 ft | 507 kts | 137° |
| 2026-05-05 01:16 | 43.48315 | -92.12244 | 30769 ft | 512 kts | 137° |
| 2026-05-05 01:16 | 43.43613 | -92.04867 | 30768 ft | 513 kts | 137° |
| 2026-05-05 01:17 | 43.38907 | -91.97496 | 30765 ft | 512 kts | 137° |
| 2026-05-05 01:17 | 43.34201 | -91.90142 | 30768 ft | 512 kts | 137° |
| 2026-05-05 01:18 | 43.29500 | -91.82826 | 30682 ft | 511 kts | 137° |
| 2026-05-05 01:18 | 43.24821 | -91.75573 | 30681 ft | 511 kts | 137° |
| 2026-05-05 01:19 | 43.20139 | -91.68239 | 30651 ft | 513 kts | 133° |
| 2026-05-05 01:19 | 43.16460 | -91.59792 | 30690 ft | 521 kts | 118° |
| 2026-05-05 01:20 | 43.13388 | -91.50803 | 30700 ft | 521 kts | 118° |
| 2026-05-05 01:20 | 43.10309 | -91.41904 | 30698 ft | 520 kts | 119° |
| 2026-05-05 01:21 | 43.07193 | -91.32969 | 30680 ft | 520 kts | 119° |
| 2026-05-05 01:21 | 43.04079 | -91.24047 | 30661 ft | 520 kts | 119° |
| 2026-05-05 01:22 | 43.00986 | -91.15118 | 30629 ft | 519 kts | 118° |
| 2026-05-05 01:22 | 42.97897 | -91.06216 | 30660 ft | 518 kts | 119° |
| 2026-05-05 01:23 | 42.94818 | -90.97420 | 30695 ft | 516 kts | 119° |
| 2026-05-05 01:23 | 42.91720 | -90.88593 | 30721 ft | 515 kts | 119° |
| 2026-05-05 01:24 | 42.88617 | -90.79792 | 30720 ft | 515 kts | 119° |
| 2026-05-05 01:24 | 42.85511 | -90.70991 | 30693 ft | 514 kts | 119° |
| 2026-05-05 01:25 | 42.82423 | -90.62284 | 30687 ft | 513 kts | 119° |
| 2026-05-05 01:25 | 42.79313 | -90.53539 | 30670 ft | 513 kts | 119° |
| 2026-05-05 01:26 | 42.76206 | -90.44810 | 30661 ft | 512 kts | 120° |
| 2026-05-05 01:26 | 42.73108 | -90.36158 | 30660 ft | 512 kts | 120° |
| 2026-05-05 01:27 | 42.69983 | -90.27472 | 30667 ft | 511 kts | 120° |
| 2026-05-05 01:27 | 42.67486 | -90.18418 | 30675 ft | 516 kts | 107° |
| 2026-05-05 01:28 | 42.65717 | -90.08972 | 30680 ft | 516 kts | 106° |
| 2026-05-05 01:28 | 42.63946 | -89.99532 | 30675 ft | 516 kts | 106° |
| 2026-05-05 01:29 | 42.62181 | -89.90169 | 30653 ft | 515 kts | 107° |
| 2026-05-05 01:29 | 42.61287 | -89.85459 | 30507 ft | 517 kts | 106° |
| 2026-05-05 01:29 | 42.60386 | -89.80731 | 30250 ft | 516 kts | 107° |
| 2026-05-05 01:30 | 42.59484 | -89.76013 | 29995 ft | 516 kts | 107° |
| 2026-05-05 01:30 | 42.58585 | -89.71319 | 28944 ft | 513 kts | 107° |
| 2026-05-05 01:30 | 42.57685 | -89.66634 | 27558 ft | 515 kts | 107° |
| 2026-05-05 01:30 | 42.56774 | -89.61909 | 26427 ft | 520 kts | 107° |
| 2026-05-05 01:31 | 42.55863 | -89.57189 | 25725 ft | 515 kts | 107° |
| 2026-05-05 01:31 | 42.54971 | -89.52564 | 24887 ft | 513 kts | 107° |
| 2026-05-05 01:31 | 42.54067 | -89.47894 | 24064 ft | 510 kts | 107° |
| 2026-05-05 01:31 | 42.53167 | -89.43253 | 23240 ft | 508 kts | 107° |
| 2026-05-05 01:32 | 42.52265 | -89.38627 | 22341 ft | 506 kts | 107° |
| 2026-05-05 01:32 | 42.51371 | -89.34048 | 21555 ft | 501 kts | 107° |
| 2026-05-05 01:32 | 42.50480 | -89.29507 | 20757 ft | 496 kts | 107° |
| 2026-05-05 01:32 | 42.49598 | -89.25006 | 19971 ft | 492 kts | 107° |
| 2026-05-05 01:33 | 42.48728 | -89.20565 | 19199 ft | 483 kts | 107° |
| 2026-05-05 01:33 | 42.47878 | -89.16226 | 18471 ft | 471 kts | 108° |
| 2026-05-05 01:33 | 42.47051 | -89.12030 | 17766 ft | 463 kts | 108° |
| 2026-05-05 01:33 | 42.46230 | -89.07875 | 17449 ft | 450 kts | 108° |
| 2026-05-05 01:34 | 42.45423 | -89.03799 | 16785 ft | 447 kts | 108° |
| 2026-05-05 01:34 | 42.44621 | -88.99755 | 16132 ft | 443 kts | 108° |
| 2026-05-05 01:34 | 42.43826 | -88.95735 | 15496 ft | 441 kts | 108° |
| 2026-05-05 01:34 | 42.43033 | -88.91743 | 14844 ft | 438 kts | 108° |
| 2026-05-05 01:35 | 42.42236 | -88.87770 | 14175 ft | 436 kts | 108° |
| 2026-05-05 01:35 | 42.41441 | -88.83816 | 13475 ft | 435 kts | 108° |
| 2026-05-05 01:35 | 42.40646 | -88.79870 | 12722 ft | 434 kts | 108° |
| 2026-05-05 01:35 | 42.39867 | -88.75999 | 12000 ft | 431 kts | 107° |
| 2026-05-05 01:36 | 42.39081 | -88.72110 | 11353 ft | 426 kts | 107° |
| 2026-05-05 01:36 | 42.38316 | -88.68315 | 11115 ft | 410 kts | 107° |
| 2026-05-05 01:36 | 42.37733 | -88.64619 | 11057 ft | 394 kts | 101° |
| 2026-05-05 01:36 | 42.37265 | -88.60977 | 11082 ft | 393 kts | 102° |
| 2026-05-05 01:37 | 42.36785 | -88.57340 | 11073 ft | 393 kts | 102° |
| 2026-05-05 01:37 | 42.36303 | -88.53709 | 11071 ft | 393 kts | 101° |
| 2026-05-05 01:37 | 42.35820 | -88.50070 | 11072 ft | 393 kts | 102° |
| 2026-05-05 01:37 | 42.35343 | -88.46487 | 11069 ft | 393 kts | 101° |
| 2026-05-05 01:38 | 42.34840 | -88.42863 | 11068 ft | 392 kts | 104° |
| 2026-05-05 01:38 | 42.33981 | -88.39373 | 11057 ft | 390 kts | 116° |
| 2026-05-05 01:38 | 42.32683 | -88.36206 | 10712 ft | 380 kts | 128° |
| 2026-05-05 01:38 | 42.31116 | -88.33327 | 10620 ft | 381 kts | 130° |
| 2026-05-05 01:39 | 42.29543 | -88.30471 | 10132 ft | 376 kts | 131° |
| 2026-05-05 01:39 | 42.27928 | -88.27743 | 9865 ft | 365 kts | 133° |
| 2026-05-05 01:39 | 42.26327 | -88.25175 | 9760 ft | 350 kts | 135° |
| 2026-05-05 01:39 | 42.24761 | -88.22735 | 9638 ft | 338 kts | 135° |
| 2026-05-05 01:40 | 42.23254 | -88.20408 | 9454 ft | 322 kts | 135° |
| 2026-05-05 01:40 | 42.21805 | -88.18158 | 9166 ft | 315 kts | 135° |
| 2026-05-05 01:40 | 42.20398 | -88.15965 | 8875 ft | 312 kts | 135° |
| 2026-05-05 01:40 | 42.18887 | -88.13908 | 8565 ft | 307 kts | 144° |
| 2026-05-05 01:41 | 42.17272 | -88.12052 | 8199 ft | 305 kts | 144° |
| 2026-05-05 01:41 | 42.15665 | -88.10198 | 7854 ft | 304 kts | 144° |
| 2026-05-05 01:41 | 42.14063 | -88.08350 | 7521 ft | 303 kts | 144° |
| 2026-05-05 01:41 | 42.12479 | -88.06502 | 7181 ft | 303 kts | 141° |
| 2026-05-05 01:42 | 42.11096 | -88.04341 | 6996 ft | 305 kts | 128° |
| 2026-05-05 01:42 | 42.10060 | -88.01826 | 7000 ft | 310 kts | 115° |
| 2026-05-05 01:42 | 42.09409 | -87.99055 | 7002 ft | 312 kts | 102° |
| 2026-05-05 01:42 | 42.09185 | -87.96184 | 7002 ft | 313 kts | 90° |
| 2026-05-05 01:43 | 42.09196 | -87.93254 | 7000 ft | 313 kts | 89° |
| 2026-05-05 01:43 | 42.09199 | -87.90324 | 7002 ft | 313 kts | 90° |
| 2026-05-05 01:43 | 42.09196 | -87.87392 | 6854 ft | 312 kts | 90° |
| 2026-05-05 01:43 | 42.09191 | -87.84477 | 6539 ft | 311 kts | 90° |
| 2026-05-05 01:44 | 42.09182 | -87.81569 | 6216 ft | 310 kts | 90° |
| 2026-05-05 01:44 | 42.09173 | -87.78681 | 5917 ft | 307 kts | 90° |
| 2026-05-05 01:44 | 42.09168 | -87.75811 | 5601 ft | 306 kts | 91° |
| 2026-05-05 01:44 | 42.09162 | -87.72988 | 5289 ft | 305 kts | 91° |
| 2026-05-05 01:45 | 42.09165 | -87.70137 | 4987 ft | 304 kts | 90° |
| 2026-05-05 01:45 | 42.09167 | -87.67284 | 4660 ft | 304 kts | 91° |
| 2026-05-05 01:45 | 42.09175 | -87.64470 | 4512 ft | 297 kts | 91° |
| 2026-05-05 01:45 | 42.09177 | -87.61730 | 4391 ft | 288 kts | 94° |
| 2026-05-05 01:46 | 42.08738 | -87.59190 | 4270 ft | 272 kts | 123° |
| 2026-05-05 01:46 | 42.07565 | -87.57354 | 4148 ft | 249 kts | 154° |
| 2026-05-05 01:46 | 42.06051 | -87.56512 | 4056 ft | 228 kts | 173° |
| 2026-05-05 01:46 | 42.04531 | -87.56008 | 4032 ft | 224 kts | 175° |
| 2026-05-05 01:47 | 42.03033 | -87.55550 | 4043 ft | 223 kts | 177° |
| 2026-05-05 01:47 | 42.01558 | -87.55599 | 4036 ft | 205 kts | 208° |
| 2026-05-05 01:47 | 42.00444 | -87.56678 | 4037 ft | 197 kts | 232° |
| 2026-05-05 01:47 | 41.99564 | -87.58097 | 4041 ft | 197 kts | 236° |
| 2026-05-05 01:48 | 41.98929 | -87.59696 | 4037 ft | 194 kts | 254° |
| 2026-05-05 01:48 | 41.98784 | -87.61488 | 4032 ft | 194 kts | 268° |
| 2026-05-05 01:48 | 41.98792 | -87.63288 | 4030 ft | 194 kts | 268° |
| 2026-05-05 01:48 | 41.98798 | -87.65076 | 3969 ft | 186 kts | 268° |
| 2026-05-05 01:49 | 41.98803 | -87.66785 | 3806 ft | 180 kts | 267° |
| 2026-05-05 01:49 | 41.98807 | -87.68413 | 3612 ft | 169 kts | 267° |
| 2026-05-05 01:49 | 41.98810 | -87.69968 | 3385 ft | 165 kts | 266° |
| 2026-05-05 01:49 | 41.98812 | -87.71478 | 3159 ft | 166 kts | 267° |
| 2026-05-05 01:50 | 41.98814 | -87.73014 | 2953 ft | 168 kts | 266° |
| 2026-05-05 01:50 | 41.98817 | -87.74582 | 2734 ft | 168 kts | 265° |
| 2026-05-05 01:50 | 41.98819 | -87.76139 | 2511 ft | 164 kts | 265° |
| 2026-05-05 01:50 | 41.98823 | -87.77611 | 2306 ft | 149 kts | 264° |
| 2026-05-05 01:51 | 41.98826 | -87.78952 | 2116 ft | 140 kts | 263° |
| 2026-05-05 01:51 | 41.98826 | -87.80240 | 1931 ft | 136 kts | 263° |
| 2026-05-05 01:51 | 41.98826 | -87.81499 | 1750 ft | 134 kts | 262° |
| 2026-05-05 01:51 | 41.98827 | -87.82737 | 1589 ft | 135 kts | 262° |
| 2026-05-05 01:52 | 41.98828 | -87.84018 | 1407 ft | 135 kts | 265° |
| 2026-05-05 01:52 | 41.98829 | -87.85284 | 1231 ft | 135 kts | 266° |
| 2026-05-05 01:52 | 41.98837 | -87.86546 | 1031 ft | 135 kts | 262° |
| 2026-05-05 01:52 | 41.98834 | -87.87817 | 880 ft | 137 kts | 264° |
| 2026-05-05 01:53 | 41.98825 | -87.89089 | 728 ft | 136 kts | 265° |
| 2026-05-05 01:53 | 41.98830 | -87.90308 | 670 ft | 117 kts | 271° |
| 2026-05-05 01:53 | 41.98832 | -87.91169 | 669 ft | 67 kts | 270° |
| 2026-05-05 01:53 | 41.98830 | -87.91638 | 668 ft | 33 kts | 270° |
| 2026-05-05 01:54 | 41.98808 | -87.91829 | 667 ft | 19 kts | 236° |
| 2026-05-05 01:54 | 41.98749 | -87.91942 | 668 ft | 9 kts | 234° |
| 2026-05-05 01:54 | 41.98735 | -87.91966 | 669 ft | 0 kts | 234° |
| 2026-05-05 01:55 | 41.98734 | -87.91969 | 669 ft | 1 kts | 234° |
| 2026-05-05 01:55 | 41.98722 | -87.91985 | 669 ft | 3 kts | 217° |
| 2026-05-05 01:55 | 41.98691 | -87.91979 | 669 ft | 6 kts | 145° |
| 2026-05-05 01:56 | 41.98679 | -87.91918 | 669 ft | 8 kts | 86° |
| 2026-05-05 01:56 | 41.98668 | -87.91838 | 668 ft | 10 kts | 126° |
| 2026-05-05 01:56 | 41.98598 | -87.91822 | 669 ft | 12 kts | 182° |
| 2026-05-05 01:56 | 41.98509 | -87.91823 | 669 ft | 14 kts | 180° |
| 2026-05-05 01:57 | 41.98402 | -87.91822 | 670 ft | 16 kts | 179° |
| 2026-05-05 01:57 | 41.98313 | -87.91821 | 670 ft | 9 kts | 179° |
| 2026-05-05 01:57 | 41.98244 | -87.91821 | 669 ft | 11 kts | 180° |
| 2026-05-05 01:57 | 41.98173 | -87.91820 | 669 ft | 11 kts | 180° |
| 2026-05-05 01:58 | 41.98087 | -87.91818 | 669 ft | 14 kts | 176° |
| 2026-05-05 01:58 | 41.97997 | -87.91754 | 668 ft | 16 kts | 141° |
| 2026-05-05 01:58 | 41.97905 | -87.91650 | 669 ft | 19 kts | 140° |